Time;durP1;ratioP1;P1;durP2;ratioP2;P2;SDS_P1;SDS_P2;PMS_P1;PMS_P2;Temp;Humidity;BMP_temperature;BMP_pressure;BME280_temperature;BME280_humidity;BME280_pressure;Samples;Min_cycle;Max_cycle;Signal;HPM_P1;HPM_P2
2023/10/03 00:00:51;;;;;;;21.38;7.97;;;18.10;93.10;;;;;;5064367;28;20028;-74
2023/10/03 00:03:17;;;;;;;27.95;7.95;;;18.10;93.10;;;;;;5063047;28;20861;-74
2023/10/03 00:05:45;;;;;;;22.90;6.35;;;18.10;93.10;;;;;;5064538;28;20040;-73
2023/10/03 00:08:11;;;;;;;15.87;5.53;;;18.10;92.50;;;;;;5061429;28;20155;-73
2023/10/03 00:10:38;;;;;;;16.95;5.20;;;18.20;92.10;;;;;;5055700;28;20028;-74
2023/10/03 00:13:07;;;;;;;12.93;5.30;;;18.20;91.80;;;;;;5065032;28;20035;-73
2023/10/03 00:15:34;;;;;;;11.38;4.35;;;18.20;91.60;;;;;;5051568;28;20514;-73
2023/10/03 00:17:59;;;;;;;18.42;4.25;;;18.20;91.10;;;;;;5066519;28;20043;-73
2023/10/03 00:20:25;;;;;;;15.57;4.43;;;18.30;90.90;;;;;;5051917;28;21355;-73
2023/10/03 00:22:52;;;;;;;16.48;4.22;;;18.30;90.90;;;;;;5068981;28;21610;-74
2023/10/03 00:25:18;;;;;;;8.50;3.85;;;18.30;90.80;;;;;;5059486;28;20032;-74
2023/10/03 00:27:46;;;;;;;12.18;4.13;;;18.30;90.60;;;;;;5067439;28;20495;-74
2023/10/03 00:30:14;;;;;;;11.27;3.93;;;18.30;90.50;;;;;;5060287;28;20467;-74
2023/10/03 00:32:41;;;;;;;10.48;3.65;;;18.30;90.50;;;;;;5068182;28;20360;-74
2023/10/03 00:35:08;;;;;;;19.15;5.20;;;18.30;90.60;;;;;;5056531;28;20028;-74
2023/10/03 00:37:35;;;;;;;16.05;3.97;;;18.20;90.70;;;;;;5065983;28;20162;-74
2023/10/03 00:40:04;;;;;;;14.93;4.90;;;18.10;90.90;;;;;;5051780;28;20040;-74
2023/10/03 00:42:31;;;;;;;14.73;4.15;;;18.00;91.20;;;;;;5063234;28;20736;-74
2023/10/03 00:44:57;;;;;;;11.85;3.92;;;17.80;91.50;;;;;;5055987;28;20052;-74
2023/10/03 00:47:22;;;;;;;17.67;4.25;;;17.70;91.60;;;;;;5062823;28;20028;-74
2023/10/03 00:49:48;;;;;;;14.90;4.30;;;17.80;91.70;;;;;;5054410;28;20028;-75
2023/10/03 00:52:15;;;;;;;11.70;3.45;;;17.80;91.70;;;;;;5069672;28;20024;-75
2023/10/03 00:54:41;;;;;;;18.83;3.95;;;17.80;91.70;;;;;;5064011;28;20536;-75
2023/10/03 00:57:08;;;;;;;17.15;3.67;;;17.70;91.80;;;;;;5055946;28;20041;-74
2023/10/03 00:59:34;;;;;;;19.15;4.35;;;17.70;91.90;;;;;;5066580;28;20538;-74
2023/10/03 01:02:06;;;;;;;12.20;3.25;;;17.60;91.90;;;;;;5051978;28;20040;-74
2023/10/03 01:04:34;;;;;;;15.68;4.03;;;17.70;91.70;;;;;;5072375;28;20060;-74
2023/10/03 01:07:00;;;;;;;12.38;3.05;;;17.70;91.80;;;;;;5056895;28;20104;-74
2023/10/03 01:09:28;;;;;;;14.38;3.55;;;17.60;91.70;;;;;;5071133;28;20107;-74
2023/10/03 01:11:56;;;;;;;9.18;3.25;;;17.60;91.50;;;;;;5060764;28;20107;-74
2023/10/03 01:14:23;;;;;;;9.13;3.03;;;17.60;91.50;;;;;;5065348;28;20028;-74
2023/10/03 01:16:49;;;;;;;12.00;3.05;;;17.50;91.50;;;;;;5060833;28;20029;-74
2023/10/03 01:19:20;;;;;;;7.72;2.72;;;17.50;91.50;;;;;;5068046;28;20056;-74
2023/10/03 01:21:46;;;;;;;13.38;3.10;;;17.40;91.50;;;;;;5057977;28;20024;-74
2023/10/03 01:24:20;;;;;;;14.93;3.22;;;17.40;91.60;;;;;;5071795;28;20127;-74
2023/10/03 01:27:57;;;;;;;13.00;2.92;;;17.40;91.60;;;;;;5056812;28;20790;-75
2023/10/03 01:30:12;;;;;;;8.05;2.63;;;17.50;91.60;;;;;;5072290;28;20029;-75
2023/10/03 01:32:44;;;;;;;15.88;3.42;;;17.40;91.50;;;;;;5061937;28;20468;-74
2023/10/03 01:35:12;;;;;;;10.50;2.60;;;17.40;91.70;;;;;;5069907;28;20039;-74
2023/10/03 01:37:39;;;;;;;10.75;2.83;;;17.40;91.50;;;;;;5061844;28;20130;-75
2023/10/03 01:40:13;;;;;;;9.80;3.28;;;17.40;91.40;;;;;;5068114;28;20050;-74
2023/10/03 01:42:45;;;;;;;6.93;2.88;;;17.40;91.30;;;;;;5053473;28;20037;-74
2023/10/03 01:45:11;;;;;;;9.00;3.03;;;17.50;91.30;;;;;;5071872;28;20051;-74
2023/10/03 01:47:40;;;;;;;13.07;3.22;;;17.40;91.30;;;;;;5054133;28;20233;-75
2023/10/03 01:50:06;;;;;;;5.53;1.88;;;17.50;91.30;;;;;;5067249;28;20089;-74
2023/10/03 01:52:32;;;;;;;5.32;1.60;;;17.50;89.70;;;;;;5057249;28;20120;-74
2023/10/03 01:54:58;;;;;;;5.10;1.80;;;17.30;89.00;;;;;;5064638;28;20097;-74
2023/10/03 01:57:24;;;;;;;2.72;1.38;;;17.20;88.90;;;;;;5055358;28;20032;-74
2023/10/03 01:59:50;;;;;;;4.05;1.20;;;17.00;88.70;;;;;;5071116;28;20033;-75
2023/10/03 02:02:15;;;;;;;2.50;1.10;;;16.80;89.00;;;;;;5048512;28;20036;-74
2023/10/03 02:04:41;;;;;;;2.38;1.00;;;16.60;89.40;;;;;;5064922;28;20451;-74
2023/10/03 02:07:07;;;;;;;3.65;1.20;;;16.50;90.00;;;;;;5066406;28;20063;-74
2023/10/03 02:09:32;;;;;;;8.63;1.20;;;16.30;90.10;;;;;;5053901;28;20154;-74
2023/10/03 02:11:59;;;;;;;1.27;0.80;;;16.10;90.10;;;;;;5064397;28;20040;-75
2023/10/03 02:14:28;;;;;;;2.78;1.10;;;16.00;90.10;;;;;;5048579;28;20037;-75
2023/10/03 02:16:54;;;;;;;1.95;0.80;;;15.80;90.30;;;;;;5069725;28;20043;-74
2023/10/03 02:19:20;;;;;;;2.90;1.08;;;15.70;90.00;;;;;;5058700;28;20098;-75
2023/10/03 02:21:46;;;;;;;1.50;0.88;;;15.60;90.10;;;;;;5063745;28;20707;-73
2023/10/03 02:24:12;;;;;;;2.42;1.00;;;15.50;90.00;;;;;;5058836;28;20140;-74
2023/10/03 02:26:41;;;;;;;1.67;0.80;;;15.40;90.20;;;;;;5069813;28;20093;-75
2023/10/03 02:29:06;;;;;;;1.40;1.00;;;15.20;90.40;;;;;;5052897;28;20028;-75
2023/10/03 02:31:33;;;;;;;0.98;0.90;;;15.10;90.40;;;;;;5068923;28;20117;-75
2023/10/03 02:34:01;;;;;;;2.83;1.00;;;15.00;90.60;;;;;;5060293;28;20531;-75
2023/10/03 02:36:27;;;;;;;1.80;0.97;;;14.90;90.80;;;;;;5071161;28;20407;-75
2023/10/03 02:38:53;;;;;;;1.38;0.95;;;14.80;90.90;;;;;;5060386;28;20043;-75
2023/10/03 02:41:19;;;;;;;3.13;1.02;;;14.70;91.00;;;;;;5064342;28;20045;-75
2023/10/03 02:43:47;;;;;;;0.90;0.70;;;14.60;90.90;;;;;;5058355;28;20036;-75
2023/10/03 02:46:12;;;;;;;1.33;0.80;;;14.50;91.00;;;;;;5067760;28;20128;-74
2023/10/03 02:48:38;;;;;;;1.67;0.98;;;14.40;91.00;;;;;;5056703;28;20645;-75
2023/10/03 02:51:06;;;;;;;6.90;0.90;;;14.40;91.00;;;;;;5066238;28;20039;-74
2023/10/03 02:53:31;;;;;;;2.95;0.60;;;14.40;91.00;;;;;;5069853;28;20063;-75
2023/10/03 02:55:58;;;;;;;1.02;0.65;;;14.40;90.70;;;;;;5056658;28;20455;-75
2023/10/03 02:58:24;;;;;;;1.27;0.55;;;14.40;90.60;;;;;;5071601;28;20114;-74
2023/10/03 03:00:54;;;;;;;1.20;0.77;;;14.40;90.70;;;;;;5051323;28;20077;-75
2023/10/03 03:03:19;;;;;;;;;;;14.40;90.70;;;;;;5068804;28;20036;-74
2023/10/03 03:05:48;;;;;;;0.80;0.73;;;14.40;90.70;;;;;;5059008;28;20572;-74
2023/10/03 03:08:30;;;;;;;1.42;0.50;;;14.40;90.50;;;;;;5068155;28;20032;-75
2023/10/03 03:10:58;;;;;;;1.92;0.73;;;14.40;90.70;;;;;;5060814;28;20032;-75
2023/10/03 03:13:27;;;;;;;3.95;0.95;;;14.40;90.50;;;;;;5067767;28;20111;-75
2023/10/03 03:16:03;;;;;;;1.02;0.80;;;14.30;90.50;;;;;;5053945;28;20032;-74
2023/10/03 03:18:31;;;;;;;1.15;0.80;;;14.20;90.60;;;;;;5064370;28;20039;-74
2023/10/03 03:20:58;;;;;;;5.27;1.00;;;14.20;90.80;;;;;;5050367;28;20087;-75
2023/10/03 03:23:31;;;;;;;1.77;1.02;;;14.10;90.80;;;;;;5067826;28;20776;-75
2023/10/03 03:26:36;;;;;;;1.40;0.98;;;14.10;90.80;;;;;;5055828;28;20442;-75
2023/10/03 03:28:46;;;;;;;1.10;0.95;;;14.20;90.80;;;;;;5065003;28;20025;-75
2023/10/03 03:31:31;;;;;;;3.60;1.10;;;14.20;91.00;;;;;;5055179;28;20123;-75
2023/10/03 03:33:57;;;;;;;2.70;1.10;;;14.30;90.50;;;;;;5064877;28;20092;-75
2023/10/03 03:36:29;;;;;;;1.35;0.93;;;14.30;90.30;;;;;;5056223;28;20488;-75
2023/10/03 03:38:56;;;;;;;2.72;1.20;;;14.30;90.40;;;;;;5070642;28;20040;-75
2023/10/03 03:41:22;;;;;;;2.42;1.40;;;14.30;90.20;;;;;;5057295;28;20126;-74
2023/10/03 03:43:48;;;;;;;2.40;1.27;;;14.30;90.30;;;;;;5072852;28;20070;-75
2023/10/03 03:46:15;;;;;;;1.95;0.93;;;14.30;90.10;;;;;;5059133;28;20032;-75
2023/10/03 03:48:41;;;;;;;1.95;1.05;;;14.40;90.10;;;;;;5063316;28;20066;-74
2023/10/03 03:51:11;;;;;;;3.97;1.00;;;14.40;90.10;;;;;;5053757;28;20037;-75
2023/10/03 03:53:38;;;;;;;1.80;1.17;;;14.40;89.90;;;;;;5068803;28;20021;-74
2023/10/03 03:56:07;;;;;;;1.23;0.90;;;14.40;89.80;;;;;;5052159;28;20133;-75
2023/10/03 03:58:37;;;;;;;1.65;1.15;;;14.40;89.70;;;;;;5071481;28;20048;-74
2023/10/03 04:01:07;;;;;;;1.45;0.95;;;14.40;89.70;;;;;;5059636;28;20042;-75
2023/10/03 04:03:35;;;;;;;4.47;1.20;;;14.50;89.70;;;;;;5052754;28;20126;-75
2023/10/03 04:06:01;;;;;;;2.28;1.40;;;14.40;89.50;;;;;;5068951;28;20028;-74
2023/10/03 04:08:26;;;;;;;2.83;1.23;;;14.30;89.90;;;;;;5053622;28;20031;-74
2023/10/03 04:10:54;;;;;;;3.03;0.88;;;14.40;89.80;;;;;;5070160;28;20038;-75
2023/10/03 04:13:21;;;;;;;1.67;1.00;;;14.40;89.70;;;;;;5043871;28;20021;-75
2023/10/03 04:15:47;;;;;;;2.33;1.08;;;14.40;89.90;;;;;;5064124;28;20459;-74
2023/10/03 04:18:15;;;;;;;2.83;1.30;;;14.40;89.70;;;;;;5056237;28;20024;-75
2023/10/03 04:20:46;;;;;;;1.33;1.00;;;14.40;89.70;;;;;;5064680;28;20055;-75
2023/10/03 04:23:12;;;;;;;3.75;1.15;;;14.40;89.20;;;;;;5053732;28;20036;-75
2023/10/03 04:25:39;;;;;;;2.45;1.02;;;14.40;89.10;;;;;;5069455;28;20518;-74
2023/10/03 04:28:05;;;;;;;1.67;0.98;;;14.40;89.10;;;;;;5050482;28;20039;-74
2023/10/03 04:30:31;;;;;;;2.17;1.35;;;14.40;89.00;;;;;;5064656;28;20032;-74
2023/10/03 04:32:57;;;;;;;4.25;0.90;;;14.50;88.80;;;;;;5057598;28;20033;-74
2023/10/03 04:35:24;;;;;;;2.58;1.13;;;14.50;89.00;;;;;;5064958;28;20145;-74
2023/10/03 04:37:51;;;;;;;2.35;1.00;;;14.50;88.70;;;;;;5057413;28;20044;-74
2023/10/03 04:40:22;;;;;;;3.40;1.23;;;14.50;88.70;;;;;;5067074;28;20041;-73
2023/10/03 04:42:50;;;;;;;1.70;0.93;;;14.50;88.50;;;;;;5054871;28;20475;-74
2023/10/03 04:45:18;;;;;;;2.10;1.10;;;14.40;88.40;;;;;;5068268;28;20036;-74
2023/10/03 04:47:44;;;;;;;1.98;1.25;;;14.50;88.10;;;;;;5055486;28;20036;-75
2023/10/03 04:50:11;;;;;;;3.03;1.10;;;14.50;87.90;;;;;;5064572;28;20055;-74
2023/10/03 04:52:38;;;;;;;2.47;0.98;;;14.50;88.00;;;;;;5064216;28;20463;-74
2023/10/03 04:55:04;;;;;;;2.72;1.35;;;14.60;88.00;;;;;;5055260;28;20121;-73
2023/10/03 04:57:30;;;;;;;2.25;1.17;;;14.50;87.80;;;;;;5067318;28;20036;-74
2023/10/03 04:59:56;;;;;;;2.95;1.50;;;14.50;87.70;;;;;;5055986;28;20035;-74
2023/10/03 05:02:23;;;;;;;2.08;1.05;;;14.50;87.90;;;;;;5064731;28;20540;-74
2023/10/03 05:04:48;;;;;;;3.05;1.00;;;14.40;88.00;;;;;;5056285;28;21472;-74
2023/10/03 05:07:15;;;;;;;2.45;1.02;;;14.40;88.00;;;;;;5070586;28;20039;-74
2023/10/03 05:09:41;;;;;;;2.78;1.05;;;14.30;87.90;;;;;;5053765;28;20029;-74
2023/10/03 05:12:06;;;;;;;1.63;1.23;;;14.20;88.30;;;;;;5069571;28;20552;-74
2023/10/03 05:14:34;;;;;;;5.57;1.38;;;14.20;88.40;;;;;;5053623;28;20111;-74
2023/10/03 05:17:01;;;;;;;2.58;1.17;;;14.10;88.30;;;;;;5062917;28;20025;-74
2023/10/03 05:19:28;;;;;;;2.45;1.30;;;14.20;88.80;;;;;;5053636;28;20162;-74
2023/10/03 05:21:53;;;;;;;2.15;1.20;;;14.20;88.90;;;;;;5061502;28;20024;-74
2023/10/03 05:24:19;;;;;;;3.55;1.15;;;14.20;88.90;;;;;;5054951;28;20029;-74
2023/10/03 05:26:45;;;;;;;1.98;1.08;;;14.20;88.90;;;;;;5069072;28;20032;-74
2023/10/03 05:29:11;;;;;;;4.18;1.55;;;14.20;89.10;;;;;;5051914;28;20021;-74
2023/10/03 05:31:40;;;;;;;2.72;1.60;;;14.10;89.30;;;;;;5066933;28;20060;-74
2023/10/03 05:34:08;;;;;;;1.73;1.17;;;14.10;89.60;;;;;;5063582;28;20023;-74
2023/10/03 05:36:33;;;;;;;2.33;1.38;;;14.10;89.50;;;;;;5056945;28;21596;-74
2023/10/03 05:39:00;;;;;;;3.10;1.45;;;14.00;89.80;;;;;;5067149;28;20036;-74
2023/10/03 05:41:26;;;;;;;2.88;1.30;;;14.00;89.50;;;;;;5050449;28;20032;-74
2023/10/03 05:43:52;;;;;;;3.25;1.38;;;14.00;89.70;;;;;;5067277;28;20028;-74
2023/10/03 05:46:18;;;;;;;4.13;1.75;;;14.00;89.80;;;;;;5058608;28;20415;-74
2023/10/03 05:48:43;;;;;;;3.63;1.38;;;13.90;90.10;;;;;;5062097;28;20024;-75
2023/10/03 05:51:09;;;;;;;6.32;1.50;;;13.90;90.00;;;;;;5058000;28;20020;-74
2023/10/03 05:53:35;;;;;;;4.55;1.80;;;13.90;90.30;;;;;;5069519;28;20029;-74
2023/10/03 05:56:04;;;;;;;2.10;1.20;;;13.80;90.10;;;;;;5052956;28;20085;-74
2023/10/03 05:58:30;;;;;;;3.67;1.60;;;13.80;90.10;;;;;;5069582;28;20040;-74
2023/10/03 06:00:56;;;;;;;4.85;1.73;;;13.80;90.30;;;;;;5055479;28;20048;-74
2023/10/03 06:03:22;;;;;;;3.40;1.73;;;13.60;90.50;;;;;;5052760;28;20120;-75
2023/10/03 06:05:48;;;;;;;4.38;1.60;;;13.60;90.80;;;;;;5055292;28;20028;-75
2023/10/03 06:08:16;;;;;;;3.38;1.65;;;13.50;91.20;;;;;;5063935;28;20028;-75
2023/10/03 06:10:42;;;;;;;3.60;1.75;;;13.30;91.60;;;;;;5055360;28;20106;-74
2023/10/03 06:13:10;;;;;;;8.02;2.13;;;13.30;91.70;;;;;;5058460;28;20028;-75
2023/10/03 06:15:40;;;;;;;3.08;1.65;;;13.20;91.90;;;;;;5049689;28;20075;-75
2023/10/03 06:18:05;;;;;;;4.68;1.60;;;13.10;91.60;;;;;;5066906;28;20475;-74
2023/10/03 06:20:31;;;;;;;4.40;1.92;;;13.10;92.10;;;;;;5058522;28;20113;-74
2023/10/03 06:22:57;;;;;;;6.07;1.85;;;13.10;91.80;;;;;;5054725;28;20226;-75
2023/10/03 06:25:24;;;;;;;4.30;1.83;;;13.10;91.50;;;;;;5059038;28;20043;-73
2023/10/03 06:27:49;;;;;;;3.88;1.70;;;13.00;91.40;;;;;;5050072;28;20031;-74
2023/10/03 06:30:15;;;;;;;3.88;1.48;;;13.00;91.00;;;;;;5044998;28;20024;-74
2023/10/03 06:32:41;;;;;;;3.13;1.45;;;13.00;90.80;;;;;;5038438;28;20427;-74
2023/10/03 06:35:09;;;;;;;3.08;1.90;;;13.00;91.00;;;;;;5049743;28;20054;-75
2023/10/03 06:37:35;;;;;;;2.85;1.67;;;13.00;90.80;;;;;;5040842;28;20032;-74
2023/10/03 06:40:06;;;;;;;3.38;1.80;;;12.90;90.90;;;;;;5048160;28;20789;-74
2023/10/03 06:42:34;;;;;;;5.07;2.00;;;12.90;90.90;;;;;;5040827;28;20663;-74
2023/10/03 06:45:00;;;;;;;9.10;1.77;;;12.80;90.90;;;;;;5050579;28;20035;-74
2023/10/03 06:47:26;;;;;;;3.95;1.92;;;12.80;91.10;;;;;;5044797;28;20032;-74
2023/10/03 06:49:52;;;;;;;3.10;1.38;;;12.70;91.20;;;;;;5055118;28;20039;-74
2023/10/03 06:52:17;;;;;;;4.35;1.70;;;12.70;91.40;;;;;;5049777;28;20028;-75
2023/10/03 06:54:43;;;;;;;6.05;1.70;;;12.70;91.60;;;;;;5058960;28;20123;-75
2023/10/03 06:57:10;;;;;;;2.58;1.33;;;12.60;91.80;;;;;;5046124;28;20625;-74
2023/10/03 06:59:35;;;;;;;5.28;1.88;;;12.60;91.90;;;;;;5051232;28;20212;-74
2023/10/03 07:02:06;;;;;;;3.95;1.90;;;12.60;91.90;;;;;;5039970;28;20040;-75
2023/10/03 07:04:31;;;;;;;4.50;1.75;;;12.60;92.00;;;;;;5045663;28;20060;-75
2023/10/03 07:06:57;;;;;;;4.30;1.58;;;12.50;92.00;;;;;;5051100;28;20139;-75
2023/10/03 07:09:23;;;;;;;3.17;1.90;;;12.50;92.10;;;;;;5032914;28;20031;-74
2023/10/03 07:11:49;;;;;;;5.50;1.98;;;12.50;92.20;;;;;;5052954;28;20579;-72
2023/10/03 07:14:16;;;;;;;5.38;2.20;;;12.50;92.20;;;;;;5043030;28;20032;-73
2023/10/03 07:16:44;;;;;;;4.68;2.30;;;12.50;92.20;;;;;;5049798;28;20032;-70
2023/10/03 07:19:12;;;;;;;4.60;1.92;;;12.50;92.30;;;;;;5043472;28;20036;-72
2023/10/03 07:21:38;;;;;;;8.33;2.10;;;12.60;92.30;;;;;;5060185;28;20028;-73
2023/10/03 07:24:04;;;;;;;3.33;2.10;;;12.60;92.30;;;;;;5047570;28;20050;-72
2023/10/03 07:26:30;;;;;;;3.33;2.00;;;12.60;92.20;;;;;;5059728;28;20751;-72
2023/10/03 07:29:00;;;;;;;4.78;2.03;;;12.70;92.20;;;;;;5041991;28;20062;-71
2023/10/03 07:31:27;;;;;;;3.85;2.10;;;12.70;92.10;;;;;;5047350;28;20055;-73
2023/10/03 07:33:52;;;;;;;4.38;2.10;;;12.80;92.10;;;;;;5046814;28;20028;-72
2023/10/03 07:36:18;;;;;;;4.28;2.17;;;12.80;91.90;;;;;;5047588;28;20049;-71
2023/10/03 07:38:45;;;;;;;3.80;1.85;;;12.90;91.80;;;;;;5047527;28;20062;-74
2023/10/03 07:41:17;;;;;;;5.82;2.25;;;13.00;91.70;;;;;;5058942;28;20044;-71
2023/10/03 07:43:47;;;;;;;6.40;2.40;;;13.00;91.50;;;;;;5039655;28;20538;-74
2023/10/03 07:46:19;;;;;;;5.13;2.22;;;13.20;93.20;;;;;;5055296;28;20047;-78
2023/10/03 07:48:45;;;;;;;3.83;2.33;;;13.40;91.30;;;;;;5040619;28;20054;-72
2023/10/03 07:51:19;;;;;;;8.23;2.00;;;13.60;90.80;;;;;;5053996;28;20428;-72
2023/10/03 07:53:46;;;;;;;3.20;1.83;;;13.70;91.20;;;;;;5053165;28;20092;-73
2023/10/03 07:56:38;;;;;;;2.22;1.65;;;13.90;89.60;;;;;;5042812;28;20040;-73
2023/10/03 07:59:04;;;;;;;5.43;2.20;;;14.00;88.50;;;;;;5058099;28;20108;-78
2023/10/03 08:01:30;;;;;;;3.47;1.90;;;14.10;90.00;;;;;;5069115;28;20050;-84
2023/10/03 08:04:00;;;;;;;11.52;1.80;;;14.20;87.80;;;;;;5045248;28;20367;-75
2023/10/03 08:06:27;;;;;;;4.07;1.90;;;14.40;88.20;;;;;;5039732;28;20037;-79
2023/10/03 08:08:59;;;;;;;5.22;2.00;;;14.60;85.80;;;;;;5048034;28;20047;-75
2023/10/03 08:11:29;;;;;;;5.50;1.50;;;14.70;85.00;;;;;;5037990;28;20801;-73
2023/10/03 08:13:57;;;;;;;6.43;2.15;;;14.80;85.50;;;;;;5052782;28;20035;-77
2023/10/03 08:16:23;;;;;;;4.38;1.95;;;14.80;83.80;;;;;;5039543;28;20039;-75
2023/10/03 08:18:57;;;;;;;4.13;2.03;;;14.80;83.20;;;;;;5051582;28;20032;-74
2023/10/03 08:21:24;;;;;;;4.68;2.35;;;14.90;84.00;;;;;;5039470;28;20043;-75
2023/10/03 08:23:51;;;;;;;5.93;2.33;;;15.10;82.70;;;;;;5045156;28;20036;-77
2023/10/03 08:26:17;;;;;;;3.88;1.55;;;15.20;84.00;;;;;;5043491;28;20032;-80
2023/10/03 08:28:43;;;;;;;4.65;2.05;;;15.30;81.20;;;;;;5051894;28;20029;-75
2023/10/03 08:31:09;;;;;;;5.35;2.10;;;15.30;81.50;;;;;;5042340;28;20094;-76
2023/10/03 08:33:36;;;;;;;6.35;2.22;;;15.20;81.60;;;;;;5057511;28;20021;-78
2023/10/03 08:36:14;;;;;;;5.45;2.53;;;15.10;82.10;;;;;;5051206;28;20032;-75
2023/10/03 08:38:43;;;;;;;5.18;2.17;;;15.30;81.80;;;;;;5054585;28;20771;-76
2023/10/03 08:41:17;;;;;;;7.00;2.30;;;15.40;79.90;;;;;;5047818;28;20779;-75
2023/10/03 08:43:46;;;;;;;5.47;2.50;;;15.30;80.60;;;;;;5052224;28;20036;-78
2023/10/03 08:46:15;;;;;;;6.88;2.30;;;15.60;81.00;;;;;;5047427;28;20041;-75
2023/10/03 08:48:43;;;;;;;5.40;2.30;;;15.90;79.90;;;;;;5055271;28;20111;-75
2023/10/03 08:51:13;;;;;;;6.20;2.40;;;16.20;77.50;;;;;;5051440;28;20045;-75
2023/10/03 08:53:40;;;;;;;4.22;2.40;;;16.40;76.90;;;;;;5065109;28;20060;-77
2023/10/03 08:56:08;;;;;;;6.88;2.55;;;16.50;76.10;;;;;;5051092;28;20093;-78
2023/10/03 08:58:34;;;;;;;7.00;2.45;;;16.60;73.60;;;;;;5061352;28;20064;-74
2023/10/03 09:01:22;;;;;;;5.60;2.30;;;16.70;76.50;;;;;;5064818;28;20032;-75
2023/10/03 09:03:58;;;;;;;3.83;2.33;;;17.00;74.20;;;;;;5064777;28;20074;-78
2023/10/03 09:06:30;;;;;;;6.55;2.33;;;17.00;71.60;;;;;;5062832;28;20029;-76
2023/10/03 09:09:07;;;;;;;5.18;2.28;;;17.00;71.80;;;;;;5072119;28;20035;-75
2023/10/03 09:11:38;;;;;;;5.47;2.20;;;17.10;70.80;;;;;;5061037;28;20433;-76
2023/10/03 09:14:05;;;;;;;6.07;2.10;;;17.30;70.70;;;;;;5068702;28;20034;-75
2023/10/03 09:16:38;;;;;;;4.47;2.00;;;17.50;72.10;;;;;;5061650;28;20032;-77
2023/10/03 09:19:23;;;;;;;13.13;2.67;;;17.60;69.50;;;;;;5069331;28;20036;-75
2023/10/03 09:21:53;;;;;;;8.77;1.85;;;17.50;71.10;;;;;;5053321;28;20043;-73
2023/10/03 09:24:21;;;;;;;6.18;2.20;;;17.50;70.80;;;;;;5052626;28;20025;-73
2023/10/03 09:26:51;;;;;;;5.63;2.28;;;17.50;69.10;;;;;;5062120;28;20040;-74
2023/10/03 09:29:37;;;;;;;5.03;2.22;;;17.30;70.70;;;;;;5059769;28;20059;-73
2023/10/03 09:32:13;;;;;;;8.07;2.45;;;17.40;70.60;;;;;;5056290;28;20051;-71
2023/10/03 09:34:44;;;;;;;5.60;2.78;;;17.50;69.80;;;;;;5060961;28;20061;-76
2023/10/03 09:37:10;;;;;;;4.90;2.28;;;17.40;69.20;;;;;;5056124;28;20055;-74
2023/10/03 09:39:47;;;;;;;5.75;2.40;;;17.30;70.70;;;;;;5072097;28;20020;-74
2023/10/03 09:42:15;;;;;;;8.57;2.15;;;17.50;68.10;;;;;;5068934;28;20032;-73
2023/10/03 09:44:44;;;;;;;7.25;2.10;;;17.60;67.40;;;;;;5063591;28;20047;-73
2023/10/03 09:47:13;;;;;;;6.60;2.50;;;17.80;64.90;;;;;;5073749;28;20028;-77
2023/10/03 09:49:39;;;;;;;7.28;2.70;;;18.00;65.80;;;;;;5067579;28;20780;-77
2023/10/03 09:52:08;;;;;;;3.97;1.95;;;18.20;63.40;;;;;;5080663;28;20060;-77
2023/10/03 09:54:36;;;;;;;11.75;2.50;;;18.30;61.80;;;;;;5056667;28;20151;-76
2023/10/03 09:57:15;;;;;;;4.10;2.00;;;18.20;62.30;;;;;;5057692;28;20500;-78
2023/10/03 09:59:45;;;;;;;7.50;2.03;;;18.20;62.30;;;;;;5048895;28;20299;-74
2023/10/03 10:02:13;;;;;;;6.45;2.10;;;18.50;61.50;;;;;;5060787;28;20048;-73
2023/10/03 10:04:41;;;;;;;5.95;2.00;;;18.70;59.40;;;;;;5048182;28;20079;-73
2023/10/03 10:07:29;;;;;;;5.60;1.75;;;19.10;58.20;;;;;;5062264;28;21050;-74
2023/10/03 10:10:01;;;;;;;4.25;1.90;;;19.40;58.00;;;;;;5046524;28;20112;-74
2023/10/03 10:12:28;;;;;;;8.52;1.95;;;19.20;56.70;;;;;;5062712;28;20028;-73
2023/10/03 10:15:14;;;;;;;5.82;1.60;;;19.00;58.60;;;;;;5055146;28;20028;-72
2023/10/03 10:17:45;;;;;;;7.05;1.77;;;19.00;57.70;;;;;;5054224;28;20036;-70
2023/10/03 10:20:12;;;;;;;8.00;2.00;;;19.20;57.50;;;;;;5051073;28;20048;-76
2023/10/03 10:23:02;;;;;;;7.22;1.80;;;19.20;57.90;;;;;;5061389;28;20032;-75
2023/10/03 10:25:29;;;;;;;11.90;1.95;;;19.20;56.90;;;;;;5048098;28;20036;-73
2023/10/03 10:28:17;;;;;;;6.47;1.80;;;19.20;58.00;;;;;;5067365;28;20634;-73
2023/10/03 10:31:21;;;;;;;6.45;1.55;;;18.90;56.20;;;;;;5046178;28;20032;-73
2023/10/03 10:33:49;;;;;;;8.70;1.90;;;18.60;58.00;;;;;;5058752;28;20024;-73
2023/10/03 10:36:18;;;;;;;5.07;2.03;;;18.70;56.20;;;;;;5041330;28;20037;-73
2023/10/03 10:38:44;;;;;;;13.70;2.13;;;18.80;57.60;;;;;;5058713;28;20059;-74
2023/10/03 10:41:26;;;;;;;10.75;2.05;;;19.20;58.60;;;;;;5054987;28;20369;-76
2023/10/03 10:44:13;;;;;;;8.27;1.80;;;19.30;55.90;;;;;;5061083;28;20031;-72
2023/10/03 10:46:46;;;;;;;7.88;2.00;;;19.30;56.60;;;;;;5052719;28;20040;-77
2023/10/03 10:49:33;;;;;;;5.35;1.63;;;19.40;56.30;;;;;;5054858;28;20024;-74
2023/10/03 10:52:09;;;;;;;8.95;1.88;;;19.50;55.50;;;;;;5056255;28;20032;-73
2023/10/03 10:54:38;;;;;;;6.10;2.03;;;19.40;56.40;;;;;;5065240;28;20096;-77
2023/10/03 10:57:06;;;;;;;7.05;2.22;;;19.30;55.30;;;;;;5047324;28;20033;-74
2023/10/03 10:59:35;;;;;;;6.45;1.83;;;19.20;55.40;;;;;;5064309;28;20823;-72
2023/10/03 11:02:04;;;;;;;5.80;1.75;;;19.20;54.90;;;;;;5051263;28;20040;-75
2023/10/03 11:04:33;;;;;;;13.55;2.10;;;19.10;55.50;;;;;;5046099;28;21102;-73
2023/10/03 11:06:58;;;;;;;;;;;19.10;57.10;;;;;;5050220;28;20032;-73
2023/10/03 11:09:25;;;;;;;8.98;2.08;;;19.20;56.20;;;;;;5062684;28;20015;-71
2023/10/03 11:11:51;;;;;;;7.28;2.10;;;19.30;56.60;;;;;;5063767;28;20050;-74
2023/10/03 11:14:28;;;;;;;7.32;1.88;;;19.40;55.70;;;;;;5084034;28;20056;-73
2023/10/03 11:16:55;;;;;;;6.30;1.70;;;19.60;56.30;;;;;;5068122;28;20860;-74
2023/10/03 11:19:21;;;;;;;5.93;1.65;;;19.70;53.80;;;;;;5071776;28;20647;-76
2023/10/03 11:21:48;;;;;;;8.82;2.08;;;19.50;55.80;;;;;;5066879;28;20101;-77
2023/10/03 11:24:20;;;;;;;9.20;1.75;;;19.50;55.40;;;;;;5065146;28;20601;-75
2023/10/03 11:26:47;;;;;;;5.55;1.85;;;19.90;54.60;;;;;;5058522;28;20024;-74
2023/10/03 11:29:15;;;;;;;8.05;1.60;;;20.30;55.20;;;;;;5080082;28;20020;-77
2023/10/03 11:31:42;;;;;;;5.32;1.73;;;20.80;52.70;;;;;;5067177;28;20028;-75
2023/10/03 11:34:09;;;;;;;4.85;2.15;;;21.00;52.20;;;;;;5050349;28;20033;-76
2023/10/03 11:36:44;;;;;;;6.63;1.80;;;21.30;51.70;;;;;;5049138;28;20400;-75
2023/10/03 11:39:12;;;;;;;6.35;2.33;;;21.00;51.30;;;;;;5061443;28;20032;-74
2023/10/03 11:41:39;;;;;;;12.23;1.90;;;21.10;51.80;;;;;;5048033;28;20050;-74
2023/10/03 11:44:18;;;;;;;5.25;2.05;;;20.80;51.90;;;;;;5043110;28;20098;-76
2023/10/03 11:46:44;;;;;;;9.40;2.05;;;20.90;51.40;;;;;;5043660;28;20057;-76
2023/10/03 11:49:10;;;;;;;7.78;1.90;;;20.90;51.20;;;;;;5051293;28;20131;-77
2023/10/03 11:51:42;;;;;;;7.20;1.90;;;20.90;51.80;;;;;;5045548;28;20486;-77
2023/10/03 11:54:08;;;;;;;7.57;1.80;;;21.10;52.70;;;;;;5058172;28;20105;-75
2023/10/03 11:56:46;;;;;;;8.48;1.60;;;21.30;50.10;;;;;;5055216;28;20520;-76
2023/10/03 11:59:14;;;;;;;4.55;1.80;;;21.70;49.30;;;;;;5047822;28;20043;-76
2023/10/03 12:01:42;;;;;;;6.53;1.95;;;21.70;47.70;;;;;;5073396;28;20044;-75
2023/10/03 12:04:08;;;;;;;8.30;1.83;;;21.70;47.80;;;;;;5063093;28;20142;-81
2023/10/03 12:06:34;;;;;;;6.10;1.30;;;21.70;47.00;;;;;;5077517;28;20139;-75
2023/10/03 12:08:59;;;;;;;6.22;1.55;;;21.90;46.40;;;;;;5058599;28;20028;-74
2023/10/03 12:11:25;;;;;;;7.28;1.55;;;21.50;47.40;;;;;;5057005;28;20042;-78
2023/10/03 12:13:51;;;;;;;7.25;1.73;;;21.20;47.70;;;;;;5056593;28;20028;-75
2023/10/03 12:16:17;;;;;;;10.45;1.40;;;20.80;48.60;;;;;;5068914;28;20059;-80
2023/10/03 12:18:43;;;;;;;6.38;1.33;;;20.50;49.90;;;;;;5050091;28;20123;-74
2023/10/03 12:21:09;;;;;;;11.23;1.50;;;20.20;51.30;;;;;;5064250;28;20088;-75
2023/10/03 12:23:36;;;;;;;4.85;1.38;;;19.90;51.80;;;;;;5050499;28;20028;-78
2023/10/03 12:26:01;;;;;;;8.48;1.63;;;19.80;53.80;;;;;;5071156;28;20029;-78
2023/10/03 12:28:27;;;;;;;7.50;1.73;;;19.50;56.00;;;;;;5060405;28;20042;-80
2023/10/03 12:30:53;;;;;;;7.80;1.25;;;19.10;56.80;;;;;;5062730;28;20031;-80
2023/10/03 12:33:19;;;;;;;2.70;1.13;;;18.90;59.40;;;;;;5057074;28;20028;-82
2023/10/03 12:35:46;;;;;;;5.53;1.35;;;18.80;59.80;;;;;;5064300;28;20085;-78
2023/10/03 12:38:12;;;;;;;5.85;1.23;;;19.00;60.90;;;;;;5047083;28;20033;-74
2023/10/03 12:40:37;;;;;;;9.82;1.70;;;18.90;60.20;;;;;;5058245;28;20033;-79
2023/10/03 12:43:03;;;;;;;5.40;1.70;;;19.00;59.00;;;;;;5062587;28;20039;-73
2023/10/03 12:45:29;;;;;;;9.50;1.85;;;18.90;59.40;;;;;;5044782;28;20032;-75
2023/10/03 12:47:56;;;;;;;6.43;1.90;;;18.90;59.60;;;;;;5055964;28;20070;-75
2023/10/03 12:50:23;;;;;;;6.75;1.48;;;19.20;57.60;;;;;;5038521;28;20031;-76
2023/10/03 12:52:50;;;;;;;8.25;1.48;;;19.20;55.30;;;;;;5061970;28;20039;-75